sensor_id;sensor_type;location;lat;lon;timestamp;P1;durP1;ratioP1;P2;durP2;ratioP2
81180;SDS011;70650;51.408;7.132;2023-08-20T00:00:06;9.77;;;5.00;;
81180;SDS011;70650;51.408;7.132;2023-08-20T00:02:36;10.57;;;4.82;;
81180;SDS011;70650;51.408;7.132;2023-08-20T00:05:03;9.18;;;5.43;;
81180;SDS011;70650;51.408;7.132;2023-08-20T00:07:30;9.15;;;5.55;;
81180;SDS011;70650;51.408;7.132;2023-08-20T00:09:56;9.40;;;4.82;;
81180;SDS011;70650;51.408;7.132;2023-08-20T00:12:21;8.98;;;4.88;;
81180;SDS011;70650;51.408;7.132;2023-08-20T00:17:24;10.57;;;5.35;;
81180;SDS011;70650;51.408;7.132;2023-08-20T00:19:52;9.88;;;5.25;;
81180;SDS011;70650;51.408;7.132;2023-08-20T00:22:20;9.23;;;4.97;;
81180;SDS011;70650;51.408;7.132;2023-08-20T00:24:47;9.55;;;5.25;;
81180;SDS011;70650;51.408;7.132;2023-08-20T00:27:12;12.30;;;5.30;;
81180;SDS011;70650;51.408;7.132;2023-08-20T00:29:38;13.00;;;6.73;;
81180;SDS011;70650;51.408;7.132;2023-08-20T00:32:03;10.70;;;5.83;;
81180;SDS011;70650;51.408;7.132;2023-08-20T00:34:28;9.57;;;5.10;;
81180;SDS011;70650;51.408;7.132;2023-08-20T00:36:54;10.73;;;5.88;;
81180;SDS011;70650;51.408;7.132;2023-08-20T00:39:19;13.90;;;5.37;;
81180;SDS011;70650;51.408;7.132;2023-08-20T00:41:45;9.70;;;5.47;;
81180;SDS011;70650;51.408;7.132;2023-08-20T00:44:10;12.43;;;6.38;;
81180;SDS011;70650;51.408;7.132;2023-08-20T00:46:35;10.73;;;5.93;;
81180;SDS011;70650;51.408;7.132;2023-08-20T00:49:01;8.73;;;5.70;;
81180;SDS011;70650;51.408;7.132;2023-08-20T00:51:26;11.43;;;6.00;;
81180;SDS011;70650;51.408;7.132;2023-08-20T00:53:53;10.75;;;6.25;;
81180;SDS011;70650;51.408;7.132;2023-08-20T00:56:19;8.60;;;5.57;;
81180;SDS011;70650;51.408;7.132;2023-08-20T00:58:44;10.43;;;5.82;;
81180;SDS011;70650;51.408;7.132;2023-08-20T01:01:10;10.38;;;5.30;;
81180;SDS011;70650;51.408;7.132;2023-08-20T01:03:35;9.90;;;5.97;;
81180;SDS011;70650;51.408;7.132;2023-08-20T01:06:20;8.27;;;5.50;;
81180;SDS011;70650;51.408;7.132;2023-08-20T01:08:51;9.88;;;5.57;;
81180;SDS011;70650;51.408;7.132;2023-08-20T01:11:30;10.45;;;5.78;;
81180;SDS011;70650;51.408;7.132;2023-08-20T01:14:01;10.02;;;5.22;;
81180;SDS011;70650;51.408;7.132;2023-08-20T01:16:26;10.10;;;5.63;;
81180;SDS011;70650;51.408;7.132;2023-08-20T01:18:51;11.43;;;5.65;;
81180;SDS011;70650;51.408;7.132;2023-08-20T01:24:16;9.23;;;5.30;;
81180;SDS011;70650;51.408;7.132;2023-08-20T01:29:39;11.27;;;5.78;;
81180;SDS011;70650;51.408;7.132;2023-08-20T01:32:06;9.43;;;5.90;;
81180;SDS011;70650;51.408;7.132;2023-08-20T01:34:33;9.75;;;5.50;;
81180;SDS011;70650;51.408;7.132;2023-08-20T01:36:58;10.00;;;6.50;;
81180;SDS011;70650;51.408;7.132;2023-08-20T01:39:24;10.47;;;5.10;;
81180;SDS011;70650;51.408;7.132;2023-08-20T01:41:49;12.17;;;6.10;;
81180;SDS011;70650;51.408;7.132;2023-08-20T01:44:14;9.30;;;5.57;;
81180;SDS011;70650;51.408;7.132;2023-08-20T01:46:40;9.50;;;5.90;;
81180;SDS011;70650;51.408;7.132;2023-08-20T01:49:05;10.07;;;6.05;;
81180;SDS011;70650;51.408;7.132;2023-08-20T01:51:31;11.50;;;5.00;;
81180;SDS011;70650;51.408;7.132;2023-08-20T01:53:56;10.63;;;5.95;;
81180;SDS011;70650;51.408;7.132;2023-08-20T01:56:22;10.23;;;6.65;;
81180;SDS011;70650;51.408;7.132;2023-08-20T01:58:47;10.77;;;5.77;;
81180;SDS011;70650;51.408;7.132;2023-08-20T02:01:12;11.03;;;5.57;;
81180;SDS011;70650;51.408;7.132;2023-08-20T02:03:38;10.47;;;6.43;;
81180;SDS011;70650;51.408;7.132;2023-08-20T02:06:03;9.25;;;6.25;;
81180;SDS011;70650;51.408;7.132;2023-08-20T02:08:29;10.75;;;5.70;;
81180;SDS011;70650;51.408;7.132;2023-08-20T02:11:01;10.23;;;5.82;;
81180;SDS011;70650;51.408;7.132;2023-08-20T02:13:27;11.63;;;5.65;;
81180;SDS011;70650;51.408;7.132;2023-08-20T02:15:59;11.90;;;6.00;;
81180;SDS011;70650;51.408;7.132;2023-08-20T02:18:29;8.18;;;5.88;;
81180;SDS011;70650;51.408;7.132;2023-08-20T02:20:56;10.63;;;5.85;;
81180;SDS011;70650;51.408;7.132;2023-08-20T02:23:22;9.68;;;5.05;;
81180;SDS011;70650;51.408;7.132;2023-08-20T02:25:48;9.18;;;5.60;;
81180;SDS011;70650;51.408;7.132;2023-08-20T02:28:14;10.48;;;5.70;;
81180;SDS011;70650;51.408;7.132;2023-08-20T02:30:43;10.45;;;5.50;;
81180;SDS011;70650;51.408;7.132;2023-08-20T02:33:10;10.38;;;6.47;;
81180;SDS011;70650;51.408;7.132;2023-08-20T02:35:36;10.77;;;5.88;;
81180;SDS011;70650;51.408;7.132;2023-08-20T02:38:03;10.85;;;5.82;;
81180;SDS011;70650;51.408;7.132;2023-08-20T02:40:29;11.13;;;6.45;;
81180;SDS011;70650;51.408;7.132;2023-08-20T02:42:55;10.20;;;6.10;;
81180;SDS011;70650;51.408;7.132;2023-08-20T02:45:20;8.93;;;5.57;;
81180;SDS011;70650;51.408;7.132;2023-08-20T02:47:46;10.40;;;5.77;;
81180;SDS011;70650;51.408;7.132;2023-08-20T02:50:11;10.55;;;6.18;;
81180;SDS011;70650;51.408;7.132;2023-08-20T02:52:37;9.70;;;5.50;;
81180;SDS011;70650;51.408;7.132;2023-08-20T02:55:02;10.18;;;5.32;;
81180;SDS011;70650;51.408;7.132;2023-08-20T02:57:29;10.18;;;6.13;;
81180;SDS011;70650;51.408;7.132;2023-08-20T02:59:55;11.15;;;5.90;;
81180;SDS011;70650;51.408;7.132;2023-08-20T03:02:20;10.37;;;5.87;;
81180;SDS011;70650;51.408;7.132;2023-08-20T03:04:45;9.57;;;5.33;;
81180;SDS011;70650;51.408;7.132;2023-08-20T03:07:11;11.03;;;6.27;;
81180;SDS011;70650;51.408;7.132;2023-08-20T03:09:37;11.18;;;5.40;;
81180;SDS011;70650;51.408;7.132;2023-08-20T03:12:02;10.60;;;5.50;;
81180;SDS011;70650;51.408;7.132;2023-08-20T03:14:28;10.30;;;5.70;;
81180;SDS011;70650;51.408;7.132;2023-08-20T03:16:53;10.10;;;6.07;;
81180;SDS011;70650;51.408;7.132;2023-08-20T03:19:18;9.50;;;5.60;;
81180;SDS011;70650;51.408;7.132;2023-08-20T03:21:43;11.40;;;5.60;;
81180;SDS011;70650;51.408;7.132;2023-08-20T03:24:10;10.45;;;6.20;;
81180;SDS011;70650;51.408;7.132;2023-08-20T03:26:35;12.00;;;6.95;;
81180;SDS011;70650;51.408;7.132;2023-08-20T03:29:01;11.57;;;6.10;;
81180;SDS011;70650;51.408;7.132;2023-08-20T03:31:26;10.90;;;6.10;;
81180;SDS011;70650;51.408;7.132;2023-08-20T03:33:51;10.02;;;5.85;;
81180;SDS011;70650;51.408;7.132;2023-08-20T03:36:18;10.32;;;5.50;;
81180;SDS011;70650;51.408;7.132;2023-08-20T03:38:43;10.77;;;5.83;;
81180;SDS011;70650;51.408;7.132;2023-08-20T03:41:09;11.80;;;6.35;;
81180;SDS011;70650;51.408;7.132;2023-08-20T03:43:34;9.83;;;5.83;;
81180;SDS011;70650;51.408;7.132;2023-08-20T03:46:00;10.32;;;5.65;;
81180;SDS011;70650;51.408;7.132;2023-08-20T03:48:27;11.85;;;6.28;;
81180;SDS011;70650;51.408;7.132;2023-08-20T03:50:53;10.98;;;6.03;;
81180;SDS011;70650;51.408;7.132;2023-08-20T03:53:19;10.57;;;6.40;;
81180;SDS011;70650;51.408;7.132;2023-08-20T03:55:50;11.60;;;6.30;;
81180;SDS011;70650;51.408;7.132;2023-08-20T03:58:16;10.77;;;6.00;;
81180;SDS011;70650;51.408;7.132;2023-08-20T04:00:42;10.32;;;6.30;;
81180;SDS011;70650;51.408;7.132;2023-08-20T04:03:08;10.63;;;6.13;;
81180;SDS011;70650;51.408;7.132;2023-08-20T04:05:37;10.95;;;5.80;;
81180;SDS011;70650;51.408;7.132;2023-08-20T04:08:06;10.32;;;5.63;;
81180;SDS011;70650;51.408;7.132;2023-08-20T04:10:32;12.38;;;5.40;;
81180;SDS011;70650;51.408;7.132;2023-08-20T04:12:58;11.73;;;6.10;;
81180;SDS011;70650;51.408;7.132;2023-08-20T04:15:23;10.35;;;5.72;;
81180;SDS011;70650;51.408;7.132;2023-08-20T04:17:49;8.77;;;5.38;;
81180;SDS011;70650;51.408;7.132;2023-08-20T04:20:14;8.47;;;4.97;;
81180;SDS011;70650;51.408;7.132;2023-08-20T04:22:40;13.23;;;5.97;;
81180;SDS011;70650;51.408;7.132;2023-08-20T04:25:07;8.85;;;5.03;;
81180;SDS011;70650;51.408;7.132;2023-08-20T04:27:33;10.55;;;5.38;;
81180;SDS011;70650;51.408;7.132;2023-08-20T04:29:58;7.85;;;4.85;;
81180;SDS011;70650;51.408;7.132;2023-08-20T04:32:23;10.38;;;5.95;;
81180;SDS011;70650;51.408;7.132;2023-08-20T04:34:49;11.48;;;6.13;;
81180;SDS011;70650;51.408;7.132;2023-08-20T04:37:17;10.30;;;5.38;;
81180;SDS011;70650;51.408;7.132;2023-08-20T04:39:43;10.07;;;5.40;;
81180;SDS011;70650;51.408;7.132;2023-08-20T04:42:09;11.20;;;5.60;;
81180;SDS011;70650;51.408;7.132;2023-08-20T04:44:34;9.13;;;5.70;;
81180;SDS011;70650;51.408;7.132;2023-08-20T04:46:59;10.40;;;5.60;;
81180;SDS011;70650;51.408;7.132;2023-08-20T04:49:25;10.77;;;5.45;;
81180;SDS011;70650;51.408;7.132;2023-08-20T04:51:53;10.38;;;5.35;;
81180;SDS011;70650;51.408;7.132;2023-08-20T04:54:18;9.70;;;5.85;;
81180;SDS011;70650;51.408;7.132;2023-08-20T04:56:44;9.17;;;5.40;;
81180;SDS011;70650;51.408;7.132;2023-08-20T04:59:09;10.93;;;5.83;;
81180;SDS011;70650;51.408;7.132;2023-08-20T05:01:34;11.57;;;5.67;;
81180;SDS011;70650;51.408;7.132;2023-08-20T05:04:01;8.73;;;5.60;;
81180;SDS011;70650;51.408;7.132;2023-08-20T05:06:26;9.90;;;5.47;;
81180;SDS011;70650;51.408;7.132;2023-08-20T05:08:51;11.13;;;5.80;;
81180;SDS011;70650;51.408;7.132;2023-08-20T05:11:17;13.27;;;6.70;;
81180;SDS011;70650;51.408;7.132;2023-08-20T05:13:44;10.67;;;6.30;;
81180;SDS011;70650;51.408;7.132;2023-08-20T05:16:10;10.20;;;5.78;;
81180;SDS011;70650;51.408;7.132;2023-08-20T05:18:35;11.63;;;6.17;;
81180;SDS011;70650;51.408;7.132;2023-08-20T05:21:00;11.47;;;5.80;;
81180;SDS011;70650;51.408;7.132;2023-08-20T05:23:26;9.40;;;5.63;;
81180;SDS011;70650;51.408;7.132;2023-08-20T05:25:51;12.90;;;6.23;;
81180;SDS011;70650;51.408;7.132;2023-08-20T05:28:16;9.77;;;5.60;;
81180;SDS011;70650;51.408;7.132;2023-08-20T05:30:42;10.85;;;6.40;;
81180;SDS011;70650;51.408;7.132;2023-08-20T05:33:07;9.40;;;6.15;;
81180;SDS011;70650;51.408;7.132;2023-08-20T05:35:32;11.30;;;5.77;;
81180;SDS011;70650;51.408;7.132;2023-08-20T05:37:57;10.90;;;6.30;;
81180;SDS011;70650;51.408;7.132;2023-08-20T05:40:23;10.80;;;6.22;;
81180;SDS011;70650;51.408;7.132;2023-08-20T05:42:48;11.73;;;5.93;;
81180;SDS011;70650;51.408;7.132;2023-08-20T05:45:13;12.57;;;6.23;;
81180;SDS011;70650;51.408;7.132;2023-08-20T05:47:39;11.68;;;6.35;;
81180;SDS011;70650;51.408;7.132;2023-08-20T05:50:05;10.50;;;6.77;;
81180;SDS011;70650;51.408;7.132;2023-08-20T05:52:30;11.57;;;6.60;;
81180;SDS011;70650;51.408;7.132;2023-08-20T05:54:55;10.20;;;5.70;;
81180;SDS011;70650;51.408;7.132;2023-08-20T05:57:21;9.87;;;6.00;;
81180;SDS011;70650;51.408;7.132;2023-08-20T05:59:46;12.85;;;6.53;;
81180;SDS011;70650;51.408;7.132;2023-08-20T06:02:15;10.60;;;6.23;;
81180;SDS011;70650;51.408;7.132;2023-08-20T06:04:43;10.65;;;6.78;;
81180;SDS011;70650;51.408;7.132;2023-08-20T06:07:09;10.90;;;6.70;;
81180;SDS011;70650;51.408;7.132;2023-08-20T06:09:34;13.97;;;6.80;;
81180;SDS011;70650;51.408;7.132;2023-08-20T06:12:03;12.07;;;7.28;;
81180;SDS011;70650;51.408;7.132;2023-08-20T06:14:29;12.48;;;8.07;;
81180;SDS011;70650;51.408;7.132;2023-08-20T06:16:54;13.40;;;8.10;;
81180;SDS011;70650;51.408;7.132;2023-08-20T06:19:19;12.57;;;7.40;;
81180;SDS011;70650;51.408;7.132;2023-08-20T06:21:45;12.82;;;7.63;;
81180;SDS011;70650;51.408;7.132;2023-08-20T06:24:10;12.37;;;7.97;;
81180;SDS011;70650;51.408;7.132;2023-08-20T06:26:36;12.13;;;8.07;;
81180;SDS011;70650;51.408;7.132;2023-08-20T06:29:01;12.33;;;7.77;;
81180;SDS011;70650;51.408;7.132;2023-08-20T06:31:26;13.65;;;8.18;;
81180;SDS011;70650;51.408;7.132;2023-08-20T06:33:52;14.88;;;8.48;;
81180;SDS011;70650;51.408;7.132;2023-08-20T06:36:17;15.33;;;8.97;;
81180;SDS011;70650;51.408;7.132;2023-08-20T06:38:42;14.57;;;9.27;;
81180;SDS011;70650;51.408;7.132;2023-08-20T06:41:08;14.97;;;8.90;;
81180;SDS011;70650;51.408;7.132;2023-08-20T06:43:33;15.70;;;8.40;;
81180;SDS011;70650;51.408;7.132;2023-08-20T06:45:58;14.60;;;8.77;;
81180;SDS011;70650;51.408;7.132;2023-08-20T06:48:24;13.85;;;8.93;;
81180;SDS011;70650;51.408;7.132;2023-08-20T06:50:51;14.73;;;9.32;;
81180;SDS011;70650;51.408;7.132;2023-08-20T06:53:18;14.10;;;8.40;;
81180;SDS011;70650;51.408;7.132;2023-08-20T06:55:43;14.52;;;8.65;;
81180;SDS011;70650;51.408;7.132;2023-08-20T06:58:10;14.73;;;8.68;;
81180;SDS011;70650;51.408;7.132;2023-08-20T07:00:36;14.73;;;8.60;;
81180;SDS011;70650;51.408;7.132;2023-08-20T07:03:02;14.55;;;8.85;;
81180;SDS011;70650;51.408;7.132;2023-08-20T07:05:28;13.95;;;8.00;;
81180;SDS011;70650;51.408;7.132;2023-08-20T07:07:53;14.32;;;8.48;;
81180;SDS011;70650;51.408;7.132;2023-08-20T07:10:19;14.73;;;8.57;;
81180;SDS011;70650;51.408;7.132;2023-08-20T07:12:44;13.00;;;8.18;;
81180;SDS011;70650;51.408;7.132;2023-08-20T07:15:10;12.40;;;7.93;;
81180;SDS011;70650;51.408;7.132;2023-08-20T07:17:35;12.38;;;7.57;;
81180;SDS011;70650;51.408;7.132;2023-08-20T07:20:03;12.77;;;8.15;;
81180;SDS011;70650;51.408;7.132;2023-08-20T07:22:29;14.30;;;7.90;;
81180;SDS011;70650;51.408;7.132;2023-08-20T07:24:55;11.32;;;7.38;;
81180;SDS011;70650;51.408;7.132;2023-08-20T07:27:20;9.70;;;5.73;;
81180;SDS011;70650;51.408;7.132;2023-08-20T07:29:45;10.82;;;5.43;;
81180;SDS011;70650;51.408;7.132;2023-08-20T07:32:10;11.97;;;6.87;;
81180;SDS011;70650;51.408;7.132;2023-08-20T07:34:36;16.90;;;7.45;;
81180;SDS011;70650;51.408;7.132;2023-08-20T07:37:02;17.90;;;8.07;;
81180;SDS011;70650;51.408;7.132;2023-08-20T07:39:28;18.02;;;7.82;;
81180;SDS011;70650;51.408;7.132;2023-08-20T07:41:53;14.37;;;7.73;;
81180;SDS011;70650;51.408;7.132;2023-08-20T07:44:18;13.77;;;8.17;;
81180;SDS011;70650;51.408;7.132;2023-08-20T07:46:44;13.70;;;8.20;;
81180;SDS011;70650;51.408;7.132;2023-08-20T07:49:09;12.43;;;8.05;;
81180;SDS011;70650;51.408;7.132;2023-08-20T07:51:34;14.53;;;8.17;;
81180;SDS011;70650;51.408;7.132;2023-08-20T07:54:00;12.40;;;8.07;;
81180;SDS011;70650;51.408;7.132;2023-08-20T07:56:25;13.20;;;8.60;;
81180;SDS011;70650;51.408;7.132;2023-08-20T07:58:51;14.23;;;8.27;;
81180;SDS011;70650;51.408;7.132;2023-08-20T08:01:17;12.13;;;8.02;;
81180;SDS011;70650;51.408;7.132;2023-08-20T08:03:43;13.23;;;8.00;;
81180;SDS011;70650;51.408;7.132;2023-08-20T08:06:09;13.07;;;8.82;;
81180;SDS011;70650;51.408;7.132;2023-08-20T08:08:34;15.77;;;8.65;;
81180;SDS011;70650;51.408;7.132;2023-08-20T08:10:59;14.63;;;8.20;;
81180;SDS011;70650;51.408;7.132;2023-08-20T08:13:25;14.40;;;9.10;;
81180;SDS011;70650;51.408;7.132;2023-08-20T08:15:51;15.35;;;8.73;;
81180;SDS011;70650;51.408;7.132;2023-08-20T08:18:17;12.82;;;7.80;;
81180;SDS011;70650;51.408;7.132;2023-08-20T08:20:44;12.35;;;8.52;;
81180;SDS011;70650;51.408;7.132;2023-08-20T08:23:10;12.27;;;7.85;;
81180;SDS011;70650;51.408;7.132;2023-08-20T08:25:36;13.48;;;7.57;;
81180;SDS011;70650;51.408;7.132;2023-08-20T08:28:02;11.02;;;6.90;;
81180;SDS011;70650;51.408;7.132;2023-08-20T08:30:28;11.40;;;7.40;;
81180;SDS011;70650;51.408;7.132;2023-08-20T08:32:54;9.90;;;6.55;;
81180;SDS011;70650;51.408;7.132;2023-08-20T08:35:20;12.77;;;6.30;;
81180;SDS011;70650;51.408;7.132;2023-08-20T08:37:45;9.50;;;4.93;;
81180;SDS011;70650;51.408;7.132;2023-08-20T08:40:11;8.80;;;4.68;;
81180;SDS011;70650;51.408;7.132;2023-08-20T08:42:38;7.88;;;4.30;;
81180;SDS011;70650;51.408;7.132;2023-08-20T08:45:05;8.30;;;4.47;;
81180;SDS011;70650;51.408;7.132;2023-08-20T08:47:32;7.38;;;4.35;;
81180;SDS011;70650;51.408;7.132;2023-08-20T08:49:57;9.05;;;5.10;;
81180;SDS011;70650;51.408;7.132;2023-08-20T08:52:23;10.32;;;5.25;;
81180;SDS011;70650;51.408;7.132;2023-08-20T08:54:50;9.23;;;5.30;;
81180;SDS011;70650;51.408;7.132;2023-08-20T08:57:16;8.10;;;5.10;;
81180;SDS011;70650;51.408;7.132;2023-08-20T08:59:42;9.65;;;5.07;;
81180;SDS011;70650;51.408;7.132;2023-08-20T09:02:08;10.80;;;4.97;;
81180;SDS011;70650;51.408;7.132;2023-08-20T09:04:41;7.65;;;5.00;;
81180;SDS011;70650;51.408;7.132;2023-08-20T09:07:14;8.00;;;5.13;;
81180;SDS011;70650;51.408;7.132;2023-08-20T09:09:44;8.00;;;4.63;;
81180;SDS011;70650;51.408;7.132;2023-08-20T09:12:17;9.15;;;4.70;;
81180;SDS011;70650;51.408;7.132;2023-08-20T09:14:47;8.52;;;4.80;;
81180;SDS011;70650;51.408;7.132;2023-08-20T09:17:14;9.57;;;4.90;;
81180;SDS011;70650;51.408;7.132;2023-08-20T09:19:41;8.30;;;5.45;;
81180;SDS011;70650;51.408;7.132;2023-08-20T09:22:08;7.68;;;5.07;;
81180;SDS011;70650;51.408;7.132;2023-08-20T09:24:34;9.18;;;5.70;;
81180;SDS011;70650;51.408;7.132;2023-08-20T09:27:04;10.65;;;6.60;;
81180;SDS011;70650;51.408;7.132;2023-08-20T09:29:33;11.68;;;6.60;;
81180;SDS011;70650;51.408;7.132;2023-08-20T09:32:13;8.15;;;5.75;;
81180;SDS011;70650;51.408;7.132;2023-08-20T09:34:40;9.13;;;5.95;;
81180;SDS011;70650;51.408;7.132;2023-08-20T09:37:12;9.57;;;6.07;;
81180;SDS011;70650;51.408;7.132;2023-08-20T09:39:39;9.07;;;5.75;;
81180;SDS011;70650;51.408;7.132;2023-08-20T09:42:05;9.02;;;5.38;;
81180;SDS011;70650;51.408;7.132;2023-08-20T09:44:34;8.85;;;5.22;;
81180;SDS011;70650;51.408;7.132;2023-08-20T09:47:07;9.70;;;5.05;;
81180;SDS011;70650;51.408;7.132;2023-08-20T09:49:36;8.90;;;5.80;;
81180;SDS011;70650;51.408;7.132;2023-08-20T09:52:07;8.05;;;5.65;;
81180;SDS011;70650;51.408;7.132;2023-08-20T09:57:07;8.00;;;5.65;;
81180;SDS011;70650;51.408;7.132;2023-08-20T09:59:39;10.23;;;5.95;;
81180;SDS011;70650;51.408;7.132;2023-08-20T10:02:06;8.63;;;6.50;;
81180;SDS011;70650;51.408;7.132;2023-08-20T10:04:38;7.78;;;5.97;;
81180;SDS011;70650;51.408;7.132;2023-08-20T10:07:03;8.65;;;6.25;;
81180;SDS011;70650;51.408;7.132;2023-08-20T10:09:29;7.53;;;5.70;;
81180;SDS011;70650;51.408;7.132;2023-08-20T10:11:54;10.05;;;6.45;;
81180;SDS011;70650;51.408;7.132;2023-08-20T10:14:20;9.75;;;6.53;;
81180;SDS011;70650;51.408;7.132;2023-08-20T10:16:45;8.88;;;5.68;;
81180;SDS011;70650;51.408;7.132;2023-08-20T10:19:11;9.77;;;6.35;;
81180;SDS011;70650;51.408;7.132;2023-08-20T10:21:36;8.02;;;5.10;;
81180;SDS011;70650;51.408;7.132;2023-08-20T10:24:09;10.75;;;6.20;;
81180;SDS011;70650;51.408;7.132;2023-08-20T10:26:41;10.43;;;6.13;;
81180;SDS011;70650;51.408;7.132;2023-08-20T10:32:13;9.68;;;6.47;;
81180;SDS011;70650;51.408;7.132;2023-08-20T10:34:41;8.20;;;5.68;;
81180;SDS011;70650;51.408;7.132;2023-08-20T10:37:14;8.73;;;5.40;;
81180;SDS011;70650;51.408;7.132;2023-08-20T10:39:53;10.23;;;7.10;;
81180;SDS011;70650;51.408;7.132;2023-08-20T10:44:57;11.05;;;5.93;;
81180;SDS011;70650;51.408;7.132;2023-08-20T10:47:41;11.32;;;6.95;;
81180;SDS011;70650;51.408;7.132;2023-08-20T10:50:07;10.18;;;6.60;;
81180;SDS011;70650;51.408;7.132;2023-08-20T10:52:39;8.50;;;5.65;;
81180;SDS011;70650;51.408;7.132;2023-08-20T10:55:06;8.98;;;5.75;;
81180;SDS011;70650;51.408;7.132;2023-08-20T10:57:36;10.43;;;6.78;;
81180;SDS011;70650;51.408;7.132;2023-08-20T11:00:04;9.30;;;5.60;;
81180;SDS011;70650;51.408;7.132;2023-08-20T11:02:40;8.82;;;6.40;;
81180;SDS011;70650;51.408;7.132;2023-08-20T11:05:16;8.93;;;6.90;;
81180;SDS011;70650;51.408;7.132;2023-08-20T11:07:44;8.68;;;5.90;;
81180;SDS011;70650;51.408;7.132;2023-08-20T11:10:10;10.13;;;6.97;;
81180;SDS011;70650;51.408;7.132;2023-08-20T11:12:38;10.07;;;7.15;;
81180;SDS011;70650;51.408;7.132;2023-08-20T11:15:03;10.40;;;8.27;;
81180;SDS011;70650;51.408;7.132;2023-08-20T11:17:29;9.95;;;7.95;;
81180;SDS011;70650;51.408;7.132;2023-08-20T11:19:55;10.70;;;7.32;;
81180;SDS011;70650;51.408;7.132;2023-08-20T11:22:20;10.02;;;7.38;;
81180;SDS011;70650;51.408;7.132;2023-08-20T11:24:46;9.38;;;7.32;;
81180;SDS011;70650;51.408;7.132;2023-08-20T11:27:11;9.05;;;7.25;;
81180;SDS011;70650;51.408;7.132;2023-08-20T11:29:37;10.90;;;8.65;;
81180;SDS011;70650;51.408;7.132;2023-08-20T11:32:07;11.50;;;8.15;;
81180;SDS011;70650;51.408;7.132;2023-08-20T11:34:34;11.13;;;8.88;;
81180;SDS011;70650;51.408;7.132;2023-08-20T11:37:00;12.63;;;9.13;;
81180;SDS011;70650;51.408;7.132;2023-08-20T11:39:26;12.95;;;10.48;;
81180;SDS011;70650;51.408;7.132;2023-08-20T11:41:54;14.95;;;12.25;;
81180;SDS011;70650;51.408;7.132;2023-08-20T11:44:20;17.23;;;13.63;;
81180;SDS011;70650;51.408;7.132;2023-08-20T11:46:46;17.33;;;13.95;;
81180;SDS011;70650;51.408;7.132;2023-08-20T11:49:12;15.20;;;13.43;;
81180;SDS011;70650;51.408;7.132;2023-08-20T11:51:38;20.45;;;16.70;;
81180;SDS011;70650;51.408;7.132;2023-08-20T11:54:08;16.98;;;15.05;;
81180;SDS011;70650;51.408;7.132;2023-08-20T11:56:35;17.38;;;14.85;;
81180;SDS011;70650;51.408;7.132;2023-08-20T11:59:03;17.38;;;13.48;;
81180;SDS011;70650;51.408;7.132;2023-08-20T12:01:33;16.27;;;13.73;;
81180;SDS011;70650;51.408;7.132;2023-08-20T12:04:01;16.92;;;14.65;;
81180;SDS011;70650;51.408;7.132;2023-08-20T12:06:28;15.48;;;13.43;;
81180;SDS011;70650;51.408;7.132;2023-08-20T12:08:56;15.52;;;13.52;;
81180;SDS011;70650;51.408;7.132;2023-08-20T12:11:25;14.85;;;13.25;;
81180;SDS011;70650;51.408;7.132;2023-08-20T12:13:51;16.27;;;13.80;;
81180;SDS011;70650;51.408;7.132;2023-08-20T12:16:17;14.63;;;12.77;;
81180;SDS011;70650;51.408;7.132;2023-08-20T12:18:46;14.52;;;13.02;;
81180;SDS011;70650;51.408;7.132;2023-08-20T12:21:11;14.43;;;12.10;;
81180;SDS011;70650;51.408;7.132;2023-08-20T12:23:37;15.77;;;12.90;;
81180;SDS011;70650;51.408;7.132;2023-08-20T12:26:03;13.32;;;11.57;;
81180;SDS011;70650;51.408;7.132;2023-08-20T12:28:29;15.35;;;12.73;;
81180;SDS011;70650;51.408;7.132;2023-08-20T12:30:54;14.90;;;11.45;;
81180;SDS011;70650;51.408;7.132;2023-08-20T12:33:19;15.05;;;11.68;;
81180;SDS011;70650;51.408;7.132;2023-08-20T12:35:46;11.90;;;10.48;;
81180;SDS011;70650;51.408;7.132;2023-08-20T12:38:11;11.93;;;9.98;;
81180;SDS011;70650;51.408;7.132;2023-08-20T12:40:37;10.45;;;8.75;;
81180;SDS011;70650;51.408;7.132;2023-08-20T12:43:02;12.25;;;9.85;;
81180;SDS011;70650;51.408;7.132;2023-08-20T12:45:28;10.73;;;9.55;;
81180;SDS011;70650;51.408;7.132;2023-08-20T12:47:54;11.27;;;9.30;;
81180;SDS011;70650;51.408;7.132;2023-08-20T12:50:19;12.38;;;9.88;;
81180;SDS011;70650;51.408;7.132;2023-08-20T12:52:44;11.48;;;9.23;;
81180;SDS011;70650;51.408;7.132;2023-08-20T12:55:12;10.43;;;8.25;;
81180;SDS011;70650;51.408;7.132;2023-08-20T12:57:38;11.48;;;10.07;;
81180;SDS011;70650;51.408;7.132;2023-08-20T13:00:18;10.63;;;9.27;;
81180;SDS011;70650;51.408;7.132;2023-08-20T13:02:44;11.43;;;10.23;;
81180;SDS011;70650;51.408;7.132;2023-08-20T13:05:09;11.18;;;8.85;;
81180;SDS011;70650;51.408;7.132;2023-08-20T13:07:36;12.60;;;10.15;;
81180;SDS011;70650;51.408;7.132;2023-08-20T13:10:01;12.93;;;10.55;;
81180;SDS011;70650;51.408;7.132;2023-08-20T13:12:27;11.25;;;9.68;;
81180;SDS011;70650;51.408;7.132;2023-08-20T13:14:58;10.63;;;8.88;;
81180;SDS011;70650;51.408;7.132;2023-08-20T13:17:24;10.50;;;9.02;;
81180;SDS011;70650;51.408;7.132;2023-08-20T13:19:49;9.50;;;8.07;;
81180;SDS011;70650;51.408;7.132;2023-08-20T13:22:15;10.63;;;9.35;;
81180;SDS011;70650;51.408;7.132;2023-08-20T13:24:40;11.38;;;8.55;;
81180;SDS011;70650;51.408;7.132;2023-08-20T13:27:06;10.18;;;9.18;;
81180;SDS011;70650;51.408;7.132;2023-08-20T13:29:31;10.32;;;8.85;;
81180;SDS011;70650;51.408;7.132;2023-08-20T13:31:57;11.55;;;8.57;;
81180;SDS011;70650;51.408;7.132;2023-08-20T13:34:22;9.88;;;8.88;;
81180;SDS011;70650;51.408;7.132;2023-08-20T13:36:47;10.13;;;8.93;;
81180;SDS011;70650;51.408;7.132;2023-08-20T13:39:13;10.77;;;9.68;;
81180;SDS011;70650;51.408;7.132;2023-08-20T13:41:39;11.38;;;10.15;;
81180;SDS011;70650;51.408;7.132;2023-08-20T13:44:05;12.20;;;9.95;;
81180;SDS011;70650;51.408;7.132;2023-08-20T13:46:31;10.43;;;9.43;;
81180;SDS011;70650;51.408;7.132;2023-08-20T13:48:57;9.87;;;8.80;;
81180;SDS011;70650;51.408;7.132;2023-08-20T13:51:22;10.77;;;9.77;;
81180;SDS011;70650;51.408;7.132;2023-08-20T13:53:47;11.30;;;8.45;;
81180;SDS011;70650;51.408;7.132;2023-08-20T13:56:13;9.38;;;8.18;;
81180;SDS011;70650;51.408;7.132;2023-08-20T13:58:38;11.13;;;9.10;;
81180;SDS011;70650;51.408;7.132;2023-08-20T14:01:04;10.03;;;9.03;;
81180;SDS011;70650;51.408;7.132;2023-08-20T14:03:29;10.38;;;9.05;;
81180;SDS011;70650;51.408;7.132;2023-08-20T14:05:54;11.20;;;9.57;;
81180;SDS011;70650;51.408;7.132;2023-08-20T14:08:20;10.98;;;9.48;;
81180;SDS011;70650;51.408;7.132;2023-08-20T14:10:45;11.32;;;9.27;;
81180;SDS011;70650;51.408;7.132;2023-08-20T14:13:11;10.80;;;9.70;;
81180;SDS011;70650;51.408;7.132;2023-08-20T14:15:36;10.75;;;8.43;;
81180;SDS011;70650;51.408;7.132;2023-08-20T14:18:02;10.15;;;9.15;;
81180;SDS011;70650;51.408;7.132;2023-08-20T14:20:28;10.73;;;9.63;;
81180;SDS011;70650;51.408;7.132;2023-08-20T14:22:54;8.82;;;7.93;;
81180;SDS011;70650;51.408;7.132;2023-08-20T14:25:19;9.13;;;8.07;;
81180;SDS011;70650;51.408;7.132;2023-08-20T14:27:45;10.18;;;8.10;;
81180;SDS011;70650;51.408;7.132;2023-08-20T14:30:10;9.50;;;7.18;;
81180;SDS011;70650;51.408;7.132;2023-08-20T14:32:36;10.45;;;6.68;;
81180;SDS011;70650;51.408;7.132;2023-08-20T14:35:01;10.17;;;6.20;;
81180;SDS011;70650;51.408;7.132;2023-08-20T14:37:27;9.43;;;7.25;;
81180;SDS011;70650;51.408;7.132;2023-08-20T14:39:53;8.97;;;7.20;;
81180;SDS011;70650;51.408;7.132;2023-08-20T14:42:18;9.25;;;6.72;;
81180;SDS011;70650;51.408;7.132;2023-08-20T14:44:43;8.38;;;6.57;;
81180;SDS011;70650;51.408;7.132;2023-08-20T14:47:09;8.20;;;5.43;;
81180;SDS011;70650;51.408;7.132;2023-08-20T14:49:35;7.82;;;6.13;;